Amstenrade, Netherlands
Current Conditions -  °F | °C
As of 6:50 PM on Wednesday 28 Jan 2015 (Local Time) from ETNG Reporting Station
Rain Showers Rain Showers  
Wind Chill: 27°   Ceiling: 1100
Heat Index: 37°   Visibility: 6mi
Dew Point: 36°   Wind: 18mph
Humidity: 93%   Direction: 290°WNW
Pressure: 29.5"   Gusts: NA
Location:  50.94°N, 5.92°E
Report Text: ETNG 281750Z 29016KT 9999 -SHRA BKN011 OVC020 03/02 Q0999 RERA BECMG CAVOK
Loading
Personal Weather Stations






























Interactive Weather Map New forecast layout! Learn more

10-Day Weather Forecast

Advertisements
Track Severe Weather on mobile